createdAt,value
2022-12-01T00:01:32.914Z,6.40
2022-12-01T00:04:01.296Z,6.30
2022-12-01T00:06:29.473Z,6.30
2022-12-01T00:09:19.507Z,6.20
2022-12-01T00:11:49.104Z,6.20
2022-12-01T00:14:18.722Z,6.20
2022-12-01T00:16:47.199Z,6.30
2022-12-01T00:19:15.645Z,6.30
2022-12-01T00:21:43.876Z,6.30
2022-12-01T00:24:14.407Z,6.30
2022-12-01T00:26:42.610Z,6.20
2022-12-01T00:29:11.288Z,6.20
2022-12-01T00:31:40.826Z,6.20
2022-12-01T00:34:13.971Z,6.20
2022-12-01T00:36:42.306Z,6.30
2022-12-01T00:39:10.926Z,6.30
2022-12-01T00:41:39.125Z,6.30
2022-12-01T00:44:07.403Z,6.30
2022-12-01T00:46:35.686Z,6.40
2022-12-01T00:49:06.002Z,6.30
2022-12-01T00:51:34.442Z,6.30
2022-12-01T00:54:02.596Z,6.40
2022-12-01T00:56:30.803Z,6.40
2022-12-01T00:58:59.576Z,6.30
2022-12-01T01:01:27.908Z,6.30
2022-12-01T01:03:56.109Z,6.30
2022-12-01T01:06:25.746Z,6.30
2022-12-01T01:08:54.043Z,6.20
2022-12-01T01:11:22.392Z,6.20
2022-12-01T01:13:50.559Z,6.20
2022-12-01T01:16:20.916Z,6.10
2022-12-01T01:18:49.813Z,6.10
2022-12-01T01:21:21.025Z,6.30
2022-12-01T01:23:50.985Z,6.30
2022-12-01T01:26:21.398Z,6.30
2022-12-01T01:28:50.543Z,6.30
2022-12-01T01:31:20.955Z,6.30
2022-12-01T01:33:49.325Z,6.30
2022-12-01T01:36:18.440Z,6.30
2022-12-01T01:38:47.988Z,6.30
2022-12-01T01:41:17.610Z,6.30
2022-12-01T01:43:48.182Z,6.30
2022-12-01T01:46:18.400Z,6.20
2022-12-01T01:48:50.801Z,6.30
2022-12-01T01:51:22.443Z,6.40
2022-12-01T01:53:52.830Z,6.30
2022-12-01T01:56:23.103Z,6.30
2022-12-01T01:58:51.759Z,6.20
2022-12-01T02:01:20.088Z,6.20
2022-12-01T02:03:49.731Z,6.20
2022-12-01T02:06:18.176Z,6.20
2022-12-01T02:08:46.332Z,6.10
2022-12-01T02:11:48.417Z,6.10
2022-12-01T02:14:31.907Z,6.10
2022-12-01T02:17:06.804Z,6.10
2022-12-01T02:20:05.465Z,6.10
2022-12-01T02:22:53.522Z,6.10
2022-12-01T02:25:36.493Z,6.10
2022-12-01T02:28:53.687Z,6.10
2022-12-01T02:31:26.156Z,6.10
2022-12-01T02:33:58.231Z,6.00
2022-12-01T02:36:36.816Z,6.00
2022-12-01T02:39:09.460Z,6.20
2022-12-01T02:41:41.238Z,6.20
2022-12-01T02:44:15.329Z,6.20
2022-12-01T02:46:48.704Z,6.20
2022-12-01T02:49:20.236Z,6.30
2022-12-01T02:51:52.042Z,6.20
2022-12-01T02:54:22.075Z,6.20
2022-12-01T02:56:53.647Z,6.10
2022-12-01T02:59:22.393Z,6.00
2022-12-01T03:02:08.112Z,6.10
2022-12-01T03:04:56.329Z,6.00
2022-12-01T03:07:50.417Z,6.10
2022-12-01T03:10:25.259Z,6.10
2022-12-01T03:13:19.907Z,6.10
2022-12-01T03:16:00.365Z,6.00
2022-12-01T03:18:36.759Z,6.00
2022-12-01T03:21:10.811Z,6.00
2022-12-01T03:23:42.632Z,6.00
2022-12-01T03:26:17.011Z,6.00
2022-12-01T03:28:48.531Z,6.10
2022-12-01T03:31:21.310Z,6.00
2022-12-01T03:33:55.342Z,6.00
2022-12-01T03:36:29.837Z,6.00
2022-12-01T03:39:01.228Z,5.90
2022-12-01T03:41:35.586Z,5.90
2022-12-01T03:44:08.507Z,5.90
2022-12-01T03:46:44.536Z,6.00
2022-12-01T03:49:16.166Z,5.80
2022-12-01T03:51:50.647Z,5.80
2022-12-01T03:54:27.354Z,5.80
2022-12-01T03:57:00.701Z,5.90
2022-12-01T03:59:30.282Z,5.90
2022-12-01T04:01:59.347Z,5.80
2022-12-01T04:04:29.147Z,5.90
2022-12-01T04:06:57.331Z,5.90
2022-12-01T04:09:25.504Z,5.90
2022-12-01T04:12:11.064Z,5.80
2022-12-01T04:14:39.259Z,5.80
2022-12-01T04:17:07.524Z,5.90
2022-12-01T04:19:37.076Z,5.90
2022-12-01T04:22:05.302Z,5.90
2022-12-01T04:24:33.552Z,5.90
2022-12-01T04:27:01.738Z,5.90
2022-12-01T04:29:29.985Z,5.90
2022-12-01T04:31:58.269Z,5.80
2022-12-01T04:34:26.481Z,5.80
2022-12-01T04:36:56.395Z,5.80
2022-12-01T04:39:24.661Z,5.80
2022-12-01T04:41:52.784Z,5.80
2022-12-01T04:44:20.986Z,5.70
2022-12-01T04:46:49.263Z,5.80
2022-12-01T04:49:17.449Z,5.80
2022-12-01T04:51:45.733Z,5.80
2022-12-01T04:54:15.721Z,5.90
2022-12-01T04:56:44.063Z,5.90
2022-12-01T04:59:12.337Z,5.90
2022-12-01T05:01:41.264Z,6.00
2022-12-01T05:04:12.324Z,5.90
2022-12-01T05:06:41.030Z,5.80
2022-12-01T05:09:13.154Z,5.80
2022-12-01T05:11:46.737Z,5.80
2022-12-01T05:14:14.990Z,5.70
2022-12-01T05:16:43.215Z,5.70
2022-12-01T05:19:29.219Z,5.60
2022-12-01T05:21:57.406Z,5.70
2022-12-01T05:24:26.585Z,5.70
2022-12-01T05:26:56.170Z,5.70
2022-12-01T05:29:24.329Z,5.60
2022-12-01T05:31:52.525Z,5.70
2022-12-01T05:34:20.789Z,5.60
2022-12-01T05:36:49.020Z,5.60
2022-12-01T05:39:17.391Z,5.70
2022-12-01T05:41:45.558Z,5.60
2022-12-01T05:44:15.084Z,5.50
2022-12-01T05:46:43.245Z,5.60
2022-12-01T05:49:11.602Z,5.50
2022-12-01T05:51:39.760Z,5.60
2022-12-01T05:54:08.046Z,5.60
2022-12-01T05:56:36.212Z,5.70
2022-12-01T05:59:04.557Z,5.60
2022-12-01T06:01:34.133Z,5.60
2022-12-01T06:04:02.636Z,5.70
2022-12-01T06:06:31.300Z,5.70
2022-12-01T06:08:59.478Z,5.60
2022-12-01T06:11:27.640Z,5.60
2022-12-01T06:13:55.838Z,5.60
2022-12-01T06:16:24.105Z,5.60
2022-12-01T06:18:53.794Z,5.60
2022-12-01T06:21:23.104Z,5.60
2022-12-01T06:23:51.449Z,5.50
2022-12-01T06:26:19.654Z,5.60
2022-12-01T06:28:47.938Z,5.60
2022-12-01T06:31:16.637Z,5.60
2022-12-01T06:33:45.040Z,5.70
2022-12-01T06:36:14.687Z,5.70
2022-12-01T06:38:42.969Z,5.70
2022-12-01T06:41:11.238Z,5.70
2022-12-01T06:43:39.503Z,5.70
2022-12-01T06:46:08.032Z,5.60
2022-12-01T06:48:36.572Z,5.60
2022-12-01T06:51:05.071Z,5.60
2022-12-01T06:53:34.727Z,5.60
2022-12-01T06:56:03.609Z,5.50
2022-12-01T06:58:32.814Z,5.60
2022-12-01T07:01:01.507Z,5.60
2022-12-01T07:03:29.751Z,5.70
2022-12-01T07:05:59.030Z,5.70
2022-12-01T07:08:27.933Z,5.50
2022-12-01T07:11:01.885Z,5.50
2022-12-01T07:13:33.643Z,5.50
2022-12-01T07:16:03.324Z,5.50
2022-12-01T07:18:32.106Z,5.50
2022-12-01T07:21:01.979Z,5.50
2022-12-01T07:23:30.501Z,5.50
2022-12-01T07:26:04.219Z,5.50
2022-12-01T07:28:32.543Z,5.50
2022-12-01T07:31:05.380Z,5.60
2022-12-01T07:33:34.290Z,5.50
2022-12-01T07:36:02.943Z,5.50
2022-12-01T07:38:32.128Z,5.40
2022-12-01T07:41:05.325Z,5.50
2022-12-01T07:43:34.417Z,5.40
2022-12-01T07:46:07.535Z,5.50
2022-12-01T07:48:36.161Z,5.50
2022-12-01T07:51:04.750Z,5.50
2022-12-01T07:53:32.951Z,5.40
2022-12-01T07:56:08.218Z,5.50
2022-12-01T07:58:39.050Z,5.50
2022-12-01T08:01:08.998Z,5.50
2022-12-01T08:03:37.610Z,5.40
2022-12-01T08:06:07.176Z,5.50
2022-12-01T08:08:37.280Z,5.50
2022-12-01T08:11:07.478Z,5.50
2022-12-01T08:13:35.907Z,5.50
2022-12-01T08:16:06.401Z,5.50
2022-12-01T08:18:35.935Z,5.50
2022-12-01T08:21:04.609Z,5.60
2022-12-01T08:23:32.826Z,5.60
2022-12-01T08:26:02.839Z,5.70
2022-12-01T08:28:31.413Z,5.60
2022-12-01T08:30:59.769Z,5.70
2022-12-01T08:33:30.302Z,5.70
2022-12-01T08:36:02.142Z,5.70
2022-12-01T08:38:30.334Z,5.70
2022-12-01T08:41:01.511Z,5.70
2022-12-01T08:43:55.907Z,5.70
2022-12-01T08:46:18.188Z,5.70
2022-12-01T08:48:48.240Z,5.70
2022-12-01T08:51:18.757Z,5.70
2022-12-01T08:53:48.789Z,5.70
2022-12-01T08:56:21.078Z,5.70
2022-12-01T08:58:50.392Z,5.70
2022-12-01T09:01:19.478Z,5.80
2022-12-01T09:03:49.251Z,5.80
2022-12-01T09:06:20.241Z,5.80
2022-12-01T09:08:48.713Z,5.80
2022-12-01T09:11:18.951Z,5.80
2022-12-01T09:13:54.288Z,5.80
2022-12-01T09:16:23.255Z,5.90
2022-12-01T09:18:52.840Z,5.90
2022-12-01T09:21:23.533Z,6.00
2022-12-01T09:23:51.880Z,6.00
2022-12-01T09:26:21.146Z,6.00
2022-12-01T09:28:53.558Z,6.10
2022-12-01T09:31:23.445Z,6.10
2022-12-01T09:33:57.646Z,6.10
2022-12-01T09:36:26.796Z,6.10
2022-12-01T09:38:55.033Z,6.30
2022-12-01T09:41:27.147Z,6.20
2022-12-01T09:44:00.622Z,6.20
2022-12-01T09:46:34.394Z,6.10
2022-12-01T09:49:07.544Z,6.00
2022-12-01T09:51:37.545Z,6.10
2022-12-01T09:54:05.976Z,6.10
2022-12-01T09:56:43.518Z,6.10
2022-12-01T09:59:19.149Z,6.30
2022-12-01T10:01:52.513Z,6.20
2022-12-01T10:04:26.421Z,6.10
2022-12-01T10:07:00.370Z,6.10
2022-12-01T10:09:34.920Z,6.00
2022-12-01T10:12:12.720Z,6.00
2022-12-01T10:14:41.156Z,5.90
2022-12-01T10:17:19.836Z,6.00
2022-12-01T10:19:57.486Z,6.00
2022-12-01T10:22:48.415Z,6.00
2022-12-01T10:25:23.065Z,6.00
2022-12-01T10:28:05.788Z,6.10
2022-12-01T10:30:40.978Z,6.20
2022-12-01T10:33:18.832Z,6.30
2022-12-01T10:35:48.498Z,6.10
2022-12-01T10:38:25.731Z,6.20
2022-12-01T10:40:58.130Z,6.30
2022-12-01T10:43:38.431Z,6.40
2022-12-01T10:46:22.570Z,6.20
2022-12-01T10:48:56.033Z,6.30
2022-12-01T10:51:26.724Z,6.30
2022-12-01T10:54:01.070Z,6.30
2022-12-01T10:56:30.082Z,6.30
2022-12-01T10:59:03.522Z,6.30
2022-12-01T11:01:35.823Z,6.50
2022-12-01T11:04:07.992Z,6.40
2022-12-01T11:06:39.233Z,6.40
2022-12-01T11:09:22.893Z,6.40
2022-12-01T11:11:58.093Z,6.40
2022-12-01T11:14:33.999Z,6.50
2022-12-01T11:17:27.160Z,6.60
2022-12-01T11:19:55.559Z,6.50
2022-12-01T11:22:27.206Z,6.40
2022-12-01T11:25:01.474Z,6.30
2022-12-01T11:27:35.345Z,6.20
2022-12-01T11:30:08.422Z,6.40
2022-12-01T11:32:40.040Z,6.40
2022-12-01T11:35:19.172Z,6.30
2022-12-01T11:38:21.195Z,6.30
2022-12-01T11:40:48.658Z,6.40
2022-12-01T11:43:26.005Z,6.40
2022-12-01T11:45:56.821Z,6.40
2022-12-01T11:48:27.265Z,6.50
2022-12-01T11:51:04.571Z,6.40
2022-12-01T11:53:36.133Z,6.30
2022-12-01T11:56:20.909Z,6.30
2022-12-01T11:58:51.255Z,6.50
2022-12-01T12:01:32.600Z,6.40
2022-12-01T12:04:17.223Z,6.30
2022-12-01T12:06:55.440Z,6.30
2022-12-01T12:09:45.322Z,6.40
2022-12-01T12:12:25.959Z,6.40
2022-12-01T12:15:05.463Z,6.40
2022-12-01T12:18:03.102Z,6.30
2022-12-01T12:20:41.690Z,6.40
2022-12-01T12:23:24.662Z,6.60
2022-12-01T12:26:03.446Z,6.70
2022-12-01T12:28:47.585Z,6.50
2022-12-01T12:31:22.747Z,6.50
2022-12-01T12:34:15.305Z,6.40
2022-12-01T12:36:51.534Z,6.50
2022-12-01T12:39:38.062Z,6.50
2022-12-01T12:42:14.715Z,6.40
2022-12-01T12:44:52.048Z,6.40
2022-12-01T12:47:38.664Z,6.40
2022-12-01T12:50:26.964Z,6.50
2022-12-01T12:53:00.378Z,6.40
2022-12-01T12:55:33.622Z,6.40
2022-12-01T12:58:11.289Z,6.50
2022-12-01T13:00:45.142Z,6.50
2022-12-01T13:03:20.542Z,6.40
2022-12-01T13:05:53.765Z,6.40
2022-12-01T13:08:25.176Z,6.50
2022-12-01T13:10:59.054Z,6.50
2022-12-01T13:13:34.722Z,6.60
2022-12-01T13:16:05.484Z,6.60
2022-12-01T13:18:40.480Z,6.50
2022-12-01T13:21:12.733Z,6.50
2022-12-01T13:23:41.858Z,6.40
2022-12-01T13:26:12.227Z,6.40
2022-12-01T13:28:45.405Z,6.30
2022-12-01T13:31:17.013Z,6.50
2022-12-01T13:33:58.443Z,6.40
2022-12-01T13:36:46.212Z,6.50
2022-12-01T13:39:20.686Z,6.60
2022-12-01T13:42:00.004Z,6.40
2022-12-01T13:44:33.564Z,6.40
2022-12-01T13:47:05.331Z,6.40
2022-12-01T13:49:44.664Z,6.40
2022-12-01T13:52:32.892Z,6.40
2022-12-01T13:55:05.134Z,6.40
2022-12-01T13:57:36.516Z,6.20
2022-12-01T14:00:24.916Z,6.30
2022-12-01T14:03:33.470Z,6.20
2022-12-01T14:06:10.561Z,6.20
2022-12-01T14:08:47.027Z,6.10
2022-12-01T14:11:22.484Z,6.20
2022-12-01T14:13:54.535Z,6.20
2022-12-01T14:16:24.852Z,6.10
2022-12-01T14:18:56.766Z,6.10
2022-12-01T14:21:45.374Z,6.00
2022-12-01T14:24:27.803Z,6.00
2022-12-01T14:26:56.974Z,6.00
2022-12-01T14:29:34.535Z,6.10
2022-12-01T14:32:28.682Z,6.10
2022-12-01T14:35:12.527Z,6.10
2022-12-01T14:37:47.514Z,6.10
2022-12-01T14:40:34.218Z,6.10
2022-12-01T14:43:27.162Z,6.10
2022-12-01T14:46:04.029Z,6.10
2022-12-01T14:48:40.286Z,6.10
2022-12-01T14:51:19.177Z,6.00
2022-12-01T14:53:49.833Z,6.00
2022-12-01T14:56:20.543Z,6.00
2022-12-01T14:58:57.080Z,6.00
2022-12-01T15:01:31.033Z,6.10
2022-12-01T15:04:03.882Z,6.00
2022-12-01T15:06:34.197Z,6.00
2022-12-01T15:11:58.792Z,5.90
2022-12-01T15:14:33.080Z,5.80
2022-12-01T15:17:02.718Z,5.80
2022-12-01T15:19:37.795Z,5.80
2022-12-01T15:22:12.663Z,5.80
2022-12-01T15:24:41.282Z,5.80
2022-12-01T15:27:26.154Z,5.80
2022-12-01T15:29:54.948Z,5.80
2022-12-01T15:32:24.708Z,5.70
2022-12-01T15:34:56.635Z,5.60
2022-12-01T15:37:29.530Z,5.70
2022-12-01T15:43:03.074Z,5.70
2022-12-01T15:45:31.526Z,5.70
2022-12-01T15:47:59.786Z,5.60
2022-12-01T15:50:33.554Z,5.60
2022-12-01T15:53:05.471Z,5.60
2022-12-01T15:55:37.317Z,5.70
2022-12-01T15:58:09.029Z,5.70
2022-12-01T16:00:37.928Z,5.80
2022-12-01T16:03:06.210Z,5.70
2022-12-01T16:05:37.407Z,5.60
2022-12-01T16:08:16.448Z,5.40
2022-12-01T16:10:44.739Z,5.40
2022-12-01T16:13:40.191Z,5.40
2022-12-01T16:16:31.008Z,5.40
2022-12-01T16:19:02.085Z,5.40
2022-12-01T16:21:35.110Z,5.50
2022-12-01T16:24:06.921Z,5.40
2022-12-01T16:26:35.581Z,5.30
2022-12-01T16:29:05.916Z,5.30
2022-12-01T16:31:34.866Z,5.20
2022-12-01T16:34:18.477Z,5.20
2022-12-01T16:36:55.880Z,5.20
2022-12-01T16:39:24.233Z,5.20
2022-12-01T16:41:53.907Z,5.10
2022-12-01T16:44:30.089Z,5.10
2022-12-01T16:46:58.340Z,5.10
2022-12-01T16:49:26.552Z,5.00
2022-12-01T16:51:57.087Z,5.10
2022-12-01T16:54:25.824Z,5.10
2022-12-01T16:56:54.004Z,5.10
2022-12-01T16:59:22.202Z,5.00
2022-12-01T17:01:50.438Z,5.10
2022-12-01T17:04:18.779Z,5.00
2022-12-01T17:06:46.963Z,5.00
2022-12-01T17:09:16.573Z,5.00
2022-12-01T17:11:44.784Z,5.00
2022-12-01T17:14:13.029Z,5.10
2022-12-01T17:16:41.209Z,5.00
2022-12-01T17:19:09.429Z,5.00
2022-12-01T17:21:37.710Z,5.00
2022-12-01T17:24:08.803Z,5.00
2022-12-01T17:26:39.614Z,5.00
2022-12-01T17:29:07.829Z,5.00
2022-12-01T17:31:36.053Z,5.00
2022-12-01T17:34:04.425Z,4.90
2022-12-01T17:36:32.614Z,4.90
2022-12-01T17:39:00.820Z,4.90
2022-12-01T17:41:32.574Z,4.90
2022-12-01T17:44:05.340Z,4.90
2022-12-01T17:46:33.660Z,4.80
2022-12-01T17:49:08.434Z,4.90
2022-12-01T17:51:36.751Z,4.80
2022-12-01T17:54:05.127Z,4.90
2022-12-01T17:56:33.913Z,4.90
2022-12-01T17:59:02.272Z,4.90
2022-12-01T18:01:31.961Z,4.80
2022-12-01T18:04:00.967Z,4.80
2022-12-01T18:06:29.421Z,4.80
2022-12-01T18:08:57.671Z,4.80
2022-12-01T18:11:25.857Z,4.70
2022-12-01T18:13:54.649Z,4.70
2022-12-01T18:16:24.570Z,4.70
2022-12-01T18:18:54.734Z,4.70
2022-12-01T18:21:24.309Z,4.80
2022-12-01T18:23:53.810Z,4.90
2022-12-01T18:26:22.465Z,4.80
2022-12-01T18:28:55.042Z,4.70
2022-12-01T18:31:23.549Z,4.80
2022-12-01T18:33:53.611Z,4.80
2022-12-01T18:36:23.688Z,4.70
2022-12-01T18:38:53.528Z,4.70
2022-12-01T18:41:22.010Z,4.70
2022-12-01T18:43:50.673Z,4.70
2022-12-01T18:46:20.790Z,4.70
2022-12-01T18:48:50.972Z,4.70
2022-12-01T18:51:21.549Z,4.70
2022-12-01T18:53:49.758Z,4.70
2022-12-01T18:56:19.796Z,4.70
2022-12-01T18:58:48.205Z,4.70
2022-12-01T19:01:21.542Z,4.70
2022-12-01T19:03:50.540Z,4.70
2022-12-01T19:06:20.565Z,4.70
2022-12-01T19:08:49.399Z,4.70
2022-12-01T19:11:17.695Z,4.80
2022-12-01T19:13:45.919Z,4.70
2022-12-01T19:16:15.857Z,4.70
2022-12-01T19:18:44.827Z,4.70
2022-12-01T19:21:15.631Z,4.60
2022-12-01T19:23:46.734Z,4.60
2022-12-01T19:26:17.756Z,4.70
2022-12-01T19:28:46.435Z,4.70
2022-12-01T19:31:17.495Z,4.70
2022-12-01T19:33:46.035Z,4.70
2022-12-01T19:36:15.646Z,4.70
2022-12-01T19:38:45.583Z,4.60
2022-12-01T19:41:14.139Z,4.70
2022-12-01T19:43:43.290Z,4.60
2022-12-01T19:46:13.781Z,4.70
2022-12-01T19:48:42.076Z,4.70
2022-12-01T19:51:18.424Z,4.70
2022-12-01T19:53:48.415Z,4.60
2022-12-01T19:56:16.661Z,4.70
2022-12-01T19:58:44.944Z,4.70
2022-12-01T20:01:15.112Z,4.70
2022-12-01T20:03:45.596Z,4.60
2022-12-01T20:06:16.030Z,4.70
2022-12-01T20:08:44.836Z,4.70
2022-12-01T20:11:15.457Z,4.60
2022-12-01T20:13:46.461Z,4.50
2022-12-01T20:16:15.889Z,4.60
2022-12-01T20:18:45.072Z,4.60
2022-12-01T20:21:17.350Z,4.60
2022-12-01T20:23:46.808Z,4.50
2022-12-01T20:26:18.046Z,4.50
2022-12-01T20:28:47.733Z,4.60
2022-12-01T20:31:19.042Z,4.60
2022-12-01T20:33:47.925Z,4.60
2022-12-01T20:36:16.899Z,4.60
2022-12-01T20:38:45.591Z,4.60
2022-12-01T20:41:14.140Z,4.50
2022-12-01T20:43:43.901Z,4.50
2022-12-01T20:46:12.843Z,4.50
2022-12-01T20:48:41.394Z,4.50
2022-12-01T20:51:11.004Z,4.50
2022-12-01T20:53:39.315Z,4.40
2022-12-01T20:56:09.548Z,4.50
2022-12-01T20:58:38.658Z,4.30
2022-12-01T21:01:13.186Z,4.30
2022-12-01T21:03:43.557Z,4.40
2022-12-01T21:06:13.345Z,4.30
2022-12-01T21:08:43.923Z,4.30
2022-12-01T21:11:19.402Z,4.70
2022-12-01T21:13:47.159Z,4.70
2022-12-01T21:16:22.903Z,4.50
2022-12-01T21:18:53.880Z,4.50
2022-12-01T21:21:25.205Z,4.30
2022-12-01T21:24:11.245Z,4.30
2022-12-01T21:26:42.167Z,4.30
2022-12-01T21:29:22.313Z,4.40
2022-12-01T21:31:53.969Z,4.40
2022-12-01T21:34:24.336Z,4.30
2022-12-01T21:36:57.302Z,4.20
2022-12-01T21:39:26.576Z,4.30
2022-12-01T21:41:57.739Z,4.20
2022-12-01T21:44:33.978Z,4.20
2022-12-01T21:47:16.625Z,4.30
2022-12-01T21:49:45.762Z,4.40
2022-12-01T21:52:18.058Z,4.30
2022-12-01T21:54:46.497Z,4.50
2022-12-01T21:57:39.796Z,4.30
2022-12-01T22:00:26.626Z,4.20
2022-12-01T22:03:28.949Z,4.10
2022-12-01T22:06:28.219Z,4.20
2022-12-01T22:08:50.868Z,4.20
2022-12-01T22:11:21.981Z,4.20
2022-12-01T22:13:54.617Z,4.20
2022-12-01T22:16:29.048Z,4.10
2022-12-01T22:19:00.829Z,4.00
2022-12-01T22:21:40.881Z,4.00
2022-12-01T22:24:27.666Z,4.00
2022-12-01T22:27:07.462Z,4.00
2022-12-01T22:29:40.837Z,4.00
2022-12-01T22:32:32.956Z,3.90
2022-12-01T22:35:37.782Z,4.00
2022-12-01T22:38:37.019Z,4.00
2022-12-01T22:41:07.795Z,4.00
2022-12-01T22:43:47.628Z,4.00
2022-12-01T22:46:33.060Z,3.90
2022-12-01T22:49:13.625Z,4.00
2022-12-01T22:51:47.303Z,4.00
2022-12-01T22:54:38.573Z,4.00
2022-12-01T22:57:26.378Z,4.10
2022-12-01T22:59:55.143Z,4.00
2022-12-01T23:02:25.434Z,4.10
2022-12-01T23:04:58.655Z,4.10
2022-12-01T23:07:34.033Z,4.20
2022-12-01T23:10:13.541Z,4.10
2022-12-01T23:12:42.229Z,4.20
2022-12-01T23:15:22.945Z,4.30
2022-12-01T23:17:51.785Z,4.20
2022-12-01T23:20:41.471Z,4.10
2022-12-01T23:23:15.283Z,4.10
2022-12-01T23:25:44.814Z,4.20
2022-12-01T23:28:14.105Z,4.20
2022-12-01T23:30:45.854Z,4.20
2022-12-01T23:33:20.632Z,4.30
2022-12-01T23:35:53.005Z,4.20
2022-12-01T23:38:25.095Z,4.10
2022-12-01T23:40:54.611Z,4.00
2022-12-01T23:43:24.853Z,4.00
2022-12-01T23:46:04.658Z,4.10
2022-12-01T23:48:35.756Z,4.20
2022-12-01T23:51:04.189Z,4.00
2022-12-01T23:53:34.321Z,4.00
2022-12-01T23:56:06.603Z,4.10
2022-12-01T23:58:35.808Z,4.10
